sensor_id;sensor_type;location;lat;lon;timestamp;pressure;altitude;pressure_sealevel;temperature;humidity
48874;BME280;66155;46.204;5.220;2024-01-06T00:05:00;97652.94;;;7.10;76.11
48874;BME280;66155;46.204;5.220;2024-01-06T00:10:00;97651.88;;;7.08;76.04
48874;BME280;66155;46.204;5.220;2024-01-06T00:15:01;97661.94;;;7.01;75.88
48874;BME280;66155;46.204;5.220;2024-01-06T00:20:01;97654.38;;;6.93;75.79
48874;BME280;66155;46.204;5.220;2024-01-06T00:25:02;97659.41;;;6.85;75.78
48874;BME280;66155;46.204;5.220;2024-01-06T00:30:03;97665.94;;;6.79;76.30
48874;BME280;66155;46.204;5.220;2024-01-06T00:35:04;97671.44;;;6.79;76.16
48874;BME280;66155;46.204;5.220;2024-01-06T00:40:05;97677.81;;;6.76;75.88
48874;BME280;66155;46.204;5.220;2024-01-06T00:45:06;97674.56;;;6.68;75.96
48874;BME280;66155;46.204;5.220;2024-01-06T00:50:07;97676.25;;;6.66;75.78
48874;BME280;66155;46.204;5.220;2024-01-06T00:55:08;97677.16;;;6.63;75.84
48874;BME280;66155;46.204;5.220;2024-01-06T01:00:08;97701.91;;;6.63;75.86
48874;BME280;66155;46.204;5.220;2024-01-06T01:05:09;97707.22;;;6.57;75.90
48874;BME280;66155;46.204;5.220;2024-01-06T01:10:10;97701.41;;;6.55;75.75
48874;BME280;66155;46.204;5.220;2024-01-06T01:15:10;97709.00;;;6.51;75.66
48874;BME280;66155;46.204;5.220;2024-01-06T01:20:11;97712.00;;;6.44;75.61
48874;BME280;66155;46.204;5.220;2024-01-06T01:25:11;97718.09;;;6.39;75.78
48874;BME280;66155;46.204;5.220;2024-01-06T01:30:13;97736.56;;;6.38;75.65
48874;BME280;66155;46.204;5.220;2024-01-06T01:35:14;97731.28;;;6.31;75.65
48874;BME280;66155;46.204;5.220;2024-01-06T01:40:15;97729.69;;;6.21;75.82
48874;BME280;66155;46.204;5.220;2024-01-06T01:45:15;97753.66;;;6.21;75.65
48874;BME280;66155;46.204;5.220;2024-01-06T01:50:16;97748.41;;;6.14;75.82
48874;BME280;66155;46.204;5.220;2024-01-06T01:55:16;97761.38;;;6.13;75.76
48874;BME280;66155;46.204;5.220;2024-01-06T02:00:17;97759.31;;;6.04;75.78
48874;BME280;66155;46.204;5.220;2024-01-06T02:05:17;97760.97;;;6.02;75.68
48874;BME280;66155;46.204;5.220;2024-01-06T02:10:18;97763.25;;;6.03;75.74
48874;BME280;66155;46.204;5.220;2024-01-06T02:15:18;97764.03;;;6.04;75.72
48874;BME280;66155;46.204;5.220;2024-01-06T02:20:20;97764.38;;;6.06;75.55
48874;BME280;66155;46.204;5.220;2024-01-06T02:25:21;97764.78;;;6.04;75.71
48874;BME280;66155;46.204;5.220;2024-01-06T02:30:21;97765.56;;;6.05;75.44
48874;BME280;66155;46.204;5.220;2024-01-06T02:35:21;97766.47;;;6.02;75.70
48874;BME280;66155;46.204;5.220;2024-01-06T02:40:22;97773.59;;;5.99;75.54
48874;BME280;66155;46.204;5.220;2024-01-06T02:45:22;97763.25;;;5.91;75.78
48874;BME280;66155;46.204;5.220;2024-01-06T02:50:22;97765.00;;;5.85;75.86
48874;BME280;66155;46.204;5.220;2024-01-06T02:55:23;97772.59;;;5.81;75.86
48874;BME280;66155;46.204;5.220;2024-01-06T03:00:23;97774.56;;;5.80;75.94
48874;BME280;66155;46.204;5.220;2024-01-06T03:05:25;97771.81;;;5.80;75.91
48874;BME280;66155;46.204;5.220;2024-01-06T03:10:26;97773.50;;;5.78;75.71
48874;BME280;66155;46.204;5.220;2024-01-06T03:15:26;97777.09;;;5.75;75.79
48874;BME280;66155;46.204;5.220;2024-01-06T03:20:26;97768.84;;;5.75;75.99
48874;BME280;66155;46.204;5.220;2024-01-06T03:25:28;97778.22;;;5.77;75.83
48874;BME280;66155;46.204;5.220;2024-01-06T03:30:28;97772.91;;;5.83;75.56
48874;BME280;66155;46.204;5.220;2024-01-06T03:35:29;97780.72;;;5.84;75.68
48874;BME280;66155;46.204;5.220;2024-01-06T03:40:29;97781.50;;;5.85;75.36
48874;BME280;66155;46.204;5.220;2024-01-06T03:45:29;97795.94;;;5.89;75.55
48874;BME280;66155;46.204;5.220;2024-01-06T03:50:30;97782.63;;;5.87;75.37
48874;BME280;66155;46.204;5.220;2024-01-06T03:55:30;97778.09;;;5.81;75.26
48874;BME280;66155;46.204;5.220;2024-01-06T04:00:30;97775.22;;;5.72;75.62
48874;BME280;66155;46.204;5.220;2024-01-06T04:05:31;97780.19;;;5.64;75.61
48874;BME280;66155;46.204;5.220;2024-01-06T04:10:31;97786.66;;;5.57;75.59
48874;BME280;66155;46.204;5.220;2024-01-06T04:15:32;97788.09;;;5.49;75.44
48874;BME280;66155;46.204;5.220;2024-01-06T04:20:32;97783.13;;;5.44;75.57
48874;BME280;66155;46.204;5.220;2024-01-06T04:25:33;97791.59;;;5.37;75.76
48874;BME280;66155;46.204;5.220;2024-01-06T04:30:33;97791.03;;;5.30;75.91
48874;BME280;66155;46.204;5.220;2024-01-06T04:35:33;97800.03;;;5.30;75.89
48874;BME280;66155;46.204;5.220;2024-01-06T04:40:34;97794.22;;;5.28;75.66
48874;BME280;66155;46.204;5.220;2024-01-06T04:45:34;97813.75;;;5.30;75.91
48874;BME280;66155;46.204;5.220;2024-01-06T04:50:37;97807.59;;;5.26;75.95
48874;BME280;66155;46.204;5.220;2024-01-06T04:55:37;97808.47;;;5.23;75.46
48874;BME280;66155;46.204;5.220;2024-01-06T05:00:37;97812.72;;;5.11;76.04
48874;BME280;66155;46.204;5.220;2024-01-06T05:05:38;97818.31;;;5.08;75.94
48874;BME280;66155;46.204;5.220;2024-01-06T05:10:38;97813.25;;;5.06;75.89
48874;BME280;66155;46.204;5.220;2024-01-06T05:15:38;97805.13;;;5.03;76.04
48874;BME280;66155;46.204;5.220;2024-01-06T05:20:39;97809.94;;;4.99;76.06
48874;BME280;66155;46.204;5.220;2024-01-06T05:25:41;97805.66;;;4.98;75.78
48874;BME280;66155;46.204;5.220;2024-01-06T05:30:41;97808.06;;;4.96;76.16
48874;BME280;66155;46.204;5.220;2024-01-06T05:35:41;97815.28;;;4.90;75.89
48874;BME280;66155;46.204;5.220;2024-01-06T05:40:42;97823.50;;;4.90;75.78
48874;BME280;66155;46.204;5.220;2024-01-06T05:45:42;97823.59;;;4.86;76.17
48874;BME280;66155;46.204;5.220;2024-01-06T05:50:43;97831.50;;;4.84;76.07
48874;BME280;66155;46.204;5.220;2024-01-06T05:55:43;97831.06;;;4.86;75.83
48874;BME280;66155;46.204;5.220;2024-01-06T06:00:44;97823.19;;;4.88;75.95
48874;BME280;66155;46.204;5.220;2024-01-06T06:05:46;97822.00;;;4.89;75.87
48874;BME280;66155;46.204;5.220;2024-01-06T06:10:46;97826.25;;;4.90;75.57
48874;BME280;66155;46.204;5.220;2024-01-06T06:16:02;97849.44;;;4.89;75.70
48874;BME280;66155;46.204;5.220;2024-01-06T06:21:02;97861.50;;;4.91;75.80
48874;BME280;66155;46.204;5.220;2024-01-06T06:26:07;97858.44;;;4.89;75.68
48874;BME280;66155;46.204;5.220;2024-01-06T06:31:08;97866.22;;;4.91;75.77
48874;BME280;66155;46.204;5.220;2024-01-06T06:36:09;97866.88;;;4.95;75.87
48874;BME280;66155;46.204;5.220;2024-01-06T06:41:10;97881.38;;;4.95;76.16
48874;BME280;66155;46.204;5.220;2024-01-06T06:46:10;97867.09;;;4.88;76.31
48874;BME280;66155;46.204;5.220;2024-01-06T06:51:10;97877.97;;;4.91;76.19
48874;BME280;66155;46.204;5.220;2024-01-06T06:56:11;97891.94;;;4.97;75.95
48874;BME280;66155;46.204;5.220;2024-01-06T07:01:16;97905.56;;;5.00;76.00
48874;BME280;66155;46.204;5.220;2024-01-06T07:06:17;97899.56;;;5.05;75.96
48874;BME280;66155;46.204;5.220;2024-01-06T07:11:18;97909.41;;;5.03;76.06
48874;BME280;66155;46.204;5.220;2024-01-06T07:16:19;97909.66;;;5.08;76.13
48874;BME280;66155;46.204;5.220;2024-01-06T07:21:20;97910.66;;;5.14;76.05
48874;BME280;66155;46.204;5.220;2024-01-06T07:26:20;97900.03;;;5.16;76.00
48874;BME280;66155;46.204;5.220;2024-01-06T07:31:20;97908.59;;;5.18;76.00
48874;BME280;66155;46.204;5.220;2024-01-06T07:36:21;97921.03;;;5.23;76.06
48874;BME280;66155;46.204;5.220;2024-01-06T07:41:22;97926.59;;;5.20;75.91
48874;BME280;66155;46.204;5.220;2024-01-06T07:46:23;97931.69;;;5.21;76.23
48874;BME280;66155;46.204;5.220;2024-01-06T07:51:23;97931.91;;;5.27;76.30
48874;BME280;66155;46.204;5.220;2024-01-06T07:56:25;97929.50;;;5.29;76.13
48874;BME280;66155;46.204;5.220;2024-01-06T08:01:25;97936.09;;;5.31;76.26
48874;BME280;66155;46.204;5.220;2024-01-06T08:06:26;97939.72;;;5.28;76.17
48874;BME280;66155;46.204;5.220;2024-01-06T08:11:26;97938.84;;;5.31;76.46
48874;BME280;66155;46.204;5.220;2024-01-06T08:16:27;97942.84;;;5.43;76.48
48874;BME280;66155;46.204;5.220;2024-01-06T08:21:27;97946.16;;;5.50;75.90
48874;BME280;66155;46.204;5.220;2024-01-06T08:26:28;97946.50;;;5.52;76.12
48874;BME280;66155;46.204;5.220;2024-01-06T08:31:29;97953.09;;;5.55;76.08
48874;BME280;66155;46.204;5.220;2024-01-06T08:36:29;97953.34;;;5.60;76.39
48874;BME280;66155;46.204;5.220;2024-01-06T08:41:30;97964.34;;;5.60;76.34
48874;BME280;66155;46.204;5.220;2024-01-06T08:46:30;97973.00;;;5.59;76.32
48874;BME280;66155;46.204;5.220;2024-01-06T08:51:30;97970.25;;;5.59;76.35
48874;BME280;66155;46.204;5.220;2024-01-06T08:56:33;97977.28;;;5.60;76.14
48874;BME280;66155;46.204;5.220;2024-01-06T09:01:34;97973.78;;;5.59;76.09
48874;BME280;66155;46.204;5.220;2024-01-06T09:06:36;97975.31;;;5.60;76.34
48874;BME280;66155;46.204;5.220;2024-01-06T09:11:36;97978.22;;;5.70;76.09
48874;BME280;66155;46.204;5.220;2024-01-06T09:16:36;97978.34;;;5.79;76.03
48874;BME280;66155;46.204;5.220;2024-01-06T09:21:37;97984.47;;;5.86;75.87
48874;BME280;66155;46.204;5.220;2024-01-06T09:26:37;97991.28;;;5.94;75.83
48874;BME280;66155;46.204;5.220;2024-01-06T09:31:38;97998.66;;;5.97;75.49
48874;BME280;66155;46.204;5.220;2024-01-06T09:36:39;97999.53;;;5.94;75.55
48874;BME280;66155;46.204;5.220;2024-01-06T09:41:40;98005.78;;;5.95;75.72
48874;BME280;66155;46.204;5.220;2024-01-06T09:46:42;98010.75;;;6.00;75.67
48874;BME280;66155;46.204;5.220;2024-01-06T09:51:44;98012.72;;;5.99;75.59
48874;BME280;66155;46.204;5.220;2024-01-06T09:56:50;98022.09;;;6.02;75.47
48874;BME280;66155;46.204;5.220;2024-01-06T10:01:51;98025.63;;;6.02;75.54
48874;BME280;66155;46.204;5.220;2024-01-06T10:06:53;98017.91;;;5.97;75.68
48874;BME280;66155;46.204;5.220;2024-01-06T10:11:56;98031.63;;;5.97;75.43
48874;BME280;66155;46.204;5.220;2024-01-06T10:16:57;98028.53;;;5.95;75.27
48874;BME280;66155;46.204;5.220;2024-01-06T10:21:57;98032.06;;;5.96;75.14
48874;BME280;66155;46.204;5.220;2024-01-06T10:27:02;98028.38;;;6.02;75.09
48874;BME280;66155;46.204;5.220;2024-01-06T10:32:03;98032.25;;;6.18;75.17
48874;BME280;66155;46.204;5.220;2024-01-06T10:37:05;98033.78;;;6.31;75.17
48874;BME280;66155;46.204;5.220;2024-01-06T10:42:06;98029.97;;;6.41;74.76
48874;BME280;66155;46.204;5.220;2024-01-06T10:47:07;98027.66;;;6.40;74.68
48874;BME280;66155;46.204;5.220;2024-01-06T10:52:08;98027.22;;;6.41;74.63
48874;BME280;66155;46.204;5.220;2024-01-06T10:57:10;98026.56;;;6.37;74.68
48874;BME280;66155;46.204;5.220;2024-01-06T11:02:12;98024.56;;;6.38;74.41
48874;BME280;66155;46.204;5.220;2024-01-06T11:07:18;98017.53;;;6.37;74.51
48874;BME280;66155;46.204;5.220;2024-01-06T11:12:19;98023.81;;;6.37;73.82
48874;BME280;66155;46.204;5.220;2024-01-06T11:22:50;98029.31;;;6.37;74.20
48874;BME280;66155;46.204;5.220;2024-01-06T11:27:51;98021.38;;;6.39;74.09
48874;BME280;66155;46.204;5.220;2024-01-06T11:32:57;98007.63;;;6.39;74.19
48874;BME280;66155;46.204;5.220;2024-01-06T11:38:02;98008.97;;;6.35;73.78
48874;BME280;66155;46.204;5.220;2024-01-06T11:43:06;97996.28;;;6.37;74.13
48874;BME280;66155;46.204;5.220;2024-01-06T11:48:09;97993.44;;;6.41;73.84
48874;BME280;66155;46.204;5.220;2024-01-06T11:53:10;97984.75;;;6.42;73.92
48874;BME280;66155;46.204;5.220;2024-01-06T11:58:10;97976.03;;;6.44;73.74
48874;BME280;66155;46.204;5.220;2024-01-06T12:03:10;97978.47;;;6.42;73.74
48874;BME280;66155;46.204;5.220;2024-01-06T12:08:11;97972.53;;;6.43;73.88
48874;BME280;66155;46.204;5.220;2024-01-06T12:13:11;97970.34;;;6.51;74.06
48874;BME280;66155;46.204;5.220;2024-01-06T12:18:12;97966.38;;;6.52;73.71
48874;BME280;66155;46.204;5.220;2024-01-06T12:23:12;97955.34;;;6.52;73.82
48874;BME280;66155;46.204;5.220;2024-01-06T12:28:23;97969.03;;;6.43;73.40
48874;BME280;66155;46.204;5.220;2024-01-06T12:33:23;97961.44;;;6.34;73.82
48874;BME280;66155;46.204;5.220;2024-01-06T12:38:24;97960.41;;;6.16;73.98
48874;BME280;66155;46.204;5.220;2024-01-06T12:43:27;97956.00;;;6.05;74.31
48874;BME280;66155;46.204;5.220;2024-01-06T12:48:28;97955.56;;;6.07;74.34
48874;BME280;66155;46.204;5.220;2024-01-06T12:53:29;97960.97;;;6.11;74.28
48874;BME280;66155;46.204;5.220;2024-01-06T12:58:29;97967.13;;;6.15;74.20
48874;BME280;66155;46.204;5.220;2024-01-06T13:03:30;97955.16;;;6.21;73.96
48874;BME280;66155;46.204;5.220;2024-01-06T13:08:30;97966.69;;;6.29;73.58
48874;BME280;66155;46.204;5.220;2024-01-06T13:13:31;97973.06;;;6.26;73.86
48874;BME280;66155;46.204;5.220;2024-01-06T13:18:31;97970.22;;;6.29;73.64
48874;BME280;66155;46.204;5.220;2024-01-06T13:23:32;97972.97;;;6.29;73.60
48874;BME280;66155;46.204;5.220;2024-01-06T13:28:32;97968.44;;;6.35;73.27
48874;BME280;66155;46.204;5.220;2024-01-06T13:33:33;97968.78;;;6.37;73.24
48874;BME280;66155;46.204;5.220;2024-01-06T13:38:33;97970.22;;;6.42;73.24
48874;BME280;66155;46.204;5.220;2024-01-06T13:43:33;97971.88;;;6.39;72.87
48874;BME280;66155;46.204;5.220;2024-01-06T13:48:34;97970.66;;;6.40;72.65
48874;BME280;66155;46.204;5.220;2024-01-06T13:53:34;97978.78;;;6.44;72.92
48874;BME280;66155;46.204;5.220;2024-01-06T13:58:35;97981.66;;;6.66;72.56
48874;BME280;66155;46.204;5.220;2024-01-06T14:03:39;97981.78;;;6.75;72.46
48874;BME280;66155;46.204;5.220;2024-01-06T14:08:39;97987.47;;;6.80;72.28
48874;BME280;66155;46.204;5.220;2024-01-06T14:13:41;98001.16;;;6.71;72.48
48874;BME280;66155;46.204;5.220;2024-01-06T14:18:42;98007.44;;;6.59;72.11
48874;BME280;66155;46.204;5.220;2024-01-06T14:23:42;97988.59;;;6.45;71.84
48874;BME280;66155;46.204;5.220;2024-01-06T14:28:43;97999.94;;;6.47;72.27
48874;BME280;66155;46.204;5.220;2024-01-06T14:33:43;98010.63;;;6.57;71.87
48874;BME280;66155;46.204;5.220;2024-01-06T14:38:44;98004.03;;;6.55;71.53
48874;BME280;66155;46.204;5.220;2024-01-06T14:43:44;98010.50;;;6.48;70.95
48874;BME280;66155;46.204;5.220;2024-01-06T14:48:45;98005.97;;;6.42;71.51
48874;BME280;66155;46.204;5.220;2024-01-06T14:53:45;98015.78;;;6.30;71.22
48874;BME280;66155;46.204;5.220;2024-01-06T14:58:45;98026.41;;;6.28;70.94
48874;BME280;66155;46.204;5.220;2024-01-06T15:03:46;98020.16;;;6.28;71.24
48874;BME280;66155;46.204;5.220;2024-01-06T15:08:46;98022.13;;;6.27;71.08
48874;BME280;66155;46.204;5.220;2024-01-06T15:13:47;98025.31;;;6.26;71.07
48874;BME280;66155;46.204;5.220;2024-01-06T15:18:48;98021.25;;;6.18;70.83
48874;BME280;66155;46.204;5.220;2024-01-06T15:23:50;98018.72;;;6.11;70.64
48874;BME280;66155;46.204;5.220;2024-01-06T15:28:50;98029.97;;;6.00;70.92
48874;BME280;66155;46.204;5.220;2024-01-06T15:33:51;98034.81;;;5.96;70.81
48874;BME280;66155;46.204;5.220;2024-01-06T15:38:51;98043.25;;;5.89;70.95
48874;BME280;66155;46.204;5.220;2024-01-06T15:43:52;98045.31;;;5.85;71.30
48874;BME280;66155;46.204;5.220;2024-01-06T15:48:52;98051.63;;;5.69;71.35
48874;BME280;66155;46.204;5.220;2024-01-06T15:53:53;98048.16;;;5.36;72.35
48874;BME280;66155;46.204;5.220;2024-01-06T15:58:54;98050.56;;;5.18;72.63
48874;BME280;66155;46.204;5.220;2024-01-06T16:03:56;98044.47;;;5.10;73.06
48874;BME280;66155;46.204;5.220;2024-01-06T16:08:57;98048.50;;;5.06;72.92
48874;BME280;66155;46.204;5.220;2024-01-06T16:13:57;98042.59;;;5.07;72.60
48874;BME280;66155;46.204;5.220;2024-01-06T16:18:58;98061.72;;;5.11;72.80
48874;BME280;66155;46.204;5.220;2024-01-06T16:23:58;98066.34;;;5.14;72.62
48874;BME280;66155;46.204;5.220;2024-01-06T16:29:00;98067.47;;;5.16;72.67
48874;BME280;66155;46.204;5.220;2024-01-06T16:34:00;98065.41;;;5.21;72.62
48874;BME280;66155;46.204;5.220;2024-01-06T16:39:01;98070.47;;;5.22;72.68
48874;BME280;66155;46.204;5.220;2024-01-06T16:44:01;98079.16;;;5.21;73.09
48874;BME280;66155;46.204;5.220;2024-01-06T16:49:02;98081.53;;;5.18;72.94
48874;BME280;66155;46.204;5.220;2024-01-06T16:54:02;98084.03;;;5.13;73.44
48874;BME280;66155;46.204;5.220;2024-01-06T16:59:03;98083.69;;;5.11;73.28
48874;BME280;66155;46.204;5.220;2024-01-06T17:04:05;98081.19;;;5.16;73.43
48874;BME280;66155;46.204;5.220;2024-01-06T17:09:06;98078.09;;;5.14;73.50
48874;BME280;66155;46.204;5.220;2024-01-06T17:14:07;98076.56;;;5.13;73.63
48874;BME280;66155;46.204;5.220;2024-01-06T17:19:07;98090.63;;;5.15;73.71
48874;BME280;66155;46.204;5.220;2024-01-06T17:24:07;98088.31;;;5.14;73.64
48874;BME280;66155;46.204;5.220;2024-01-06T17:29:08;98085.22;;;5.12;73.70
48874;BME280;66155;46.204;5.220;2024-01-06T17:34:10;98089.69;;;5.06;74.29
48874;BME280;66155;46.204;5.220;2024-01-06T17:39:11;98090.44;;;5.06;74.01
48874;BME280;66155;46.204;5.220;2024-01-06T17:44:11;98092.19;;;5.00;74.02
48874;BME280;66155;46.204;5.220;2024-01-06T17:49:12;98092.59;;;4.99;73.90
48874;BME280;66155;46.204;5.220;2024-01-06T17:54:12;98097.75;;;4.97;73.84
48874;BME280;66155;46.204;5.220;2024-01-06T17:59:14;98107.19;;;4.96;73.69
48874;BME280;66155;46.204;5.220;2024-01-06T18:04:14;98101.31;;;4.94;74.24
48874;BME280;66155;46.204;5.220;2024-01-06T18:09:15;98107.25;;;4.92;73.89
48874;BME280;66155;46.204;5.220;2024-01-06T18:14:19;98105.28;;;4.93;73.90
48874;BME280;66155;46.204;5.220;2024-01-06T18:19:19;98109.91;;;4.96;74.13
48874;BME280;66155;46.204;5.220;2024-01-06T18:24:20;98111.81;;;4.99;74.05
48874;BME280;66155;46.204;5.220;2024-01-06T18:29:20;98107.50;;;4.98;73.97
48874;BME280;66155;46.204;5.220;2024-01-06T18:34:22;98115.50;;;4.92;74.32
48874;BME280;66155;46.204;5.220;2024-01-06T18:39:23;98108.03;;;4.93;74.00
48874;BME280;66155;46.204;5.220;2024-01-06T18:44:26;98113.16;;;4.91;74.38
48874;BME280;66155;46.204;5.220;2024-01-06T18:49:26;98118.56;;;4.94;74.28
48874;BME280;66155;46.204;5.220;2024-01-06T18:54:27;98116.75;;;4.88;74.83
48874;BME280;66155;46.204;5.220;2024-01-06T18:59:27;98112.06;;;4.88;74.66
48874;BME280;66155;46.204;5.220;2024-01-06T19:04:28;98124.22;;;4.87;74.52
48874;BME280;66155;46.204;5.220;2024-01-06T19:09:28;98110.66;;;4.80;74.67
48874;BME280;66155;46.204;5.220;2024-01-06T19:14:30;98107.84;;;4.84;74.58
48874;BME280;66155;46.204;5.220;2024-01-06T19:19:30;98119.66;;;4.81;74.52
48874;BME280;66155;46.204;5.220;2024-01-06T19:24:31;98117.34;;;4.79;74.49
48874;BME280;66155;46.204;5.220;2024-01-06T19:29:31;98121.81;;;4.73;74.83
48874;BME280;66155;46.204;5.220;2024-01-06T19:34:32;98111.25;;;4.72;74.57
48874;BME280;66155;46.204;5.220;2024-01-06T19:39:32;98115.19;;;4.70;74.66
48874;BME280;66155;46.204;5.220;2024-01-06T19:44:32;98123.50;;;4.67;74.78
48874;BME280;66155;46.204;5.220;2024-01-06T19:49:33;98111.47;;;4.61;74.75
48874;BME280;66155;46.204;5.220;2024-01-06T19:54:33;98110.78;;;4.57;75.17
48874;BME280;66155;46.204;5.220;2024-01-06T19:59:36;98114.44;;;4.50;75.52
48874;BME280;66155;46.204;5.220;2024-01-06T20:04:37;98107.47;;;4.46;75.45
48874;BME280;66155;46.204;5.220;2024-01-06T20:09:37;98106.69;;;4.45;75.36
48874;BME280;66155;46.204;5.220;2024-01-06T20:14:38;98111.00;;;4.46;75.10
48874;BME280;66155;46.204;5.220;2024-01-06T20:19:38;98105.44;;;4.50;75.02
48874;BME280;66155;46.204;5.220;2024-01-06T20:24:39;98104.16;;;4.54;75.18
48874;BME280;66155;46.204;5.220;2024-01-06T20:29:40;98102.47;;;4.60;75.21
48874;BME280;66155;46.204;5.220;2024-01-06T20:34:40;98095.44;;;4.59;74.85
48874;BME280;66155;46.204;5.220;2024-01-06T20:39:44;98093.81;;;4.62;74.92
48874;BME280;66155;46.204;5.220;2024-01-06T20:44:45;98107.44;;;4.65;75.13
48874;BME280;66155;46.204;5.220;2024-01-06T20:49:45;98091.44;;;4.64;75.14
48874;BME280;66155;46.204;5.220;2024-01-06T20:54:45;98092.91;;;4.68;75.10
48874;BME280;66155;46.204;5.220;2024-01-06T20:59:47;98086.97;;;4.70;75.25
48874;BME280;66155;46.204;5.220;2024-01-06T21:04:50;98082.44;;;4.63;75.52
48874;BME280;66155;46.204;5.220;2024-01-06T21:09:51;98079.69;;;4.63;75.46
48874;BME280;66155;46.204;5.220;2024-01-06T21:14:51;98073.84;;;4.61;75.57
48874;BME280;66155;46.204;5.220;2024-01-06T21:19:52;98079.41;;;4.58;75.86
48874;BME280;66155;46.204;5.220;2024-01-06T21:24:53;98071.25;;;4.54;75.73
48874;BME280;66155;46.204;5.220;2024-01-06T21:29:53;98072.97;;;4.48;75.95
48874;BME280;66155;46.204;5.220;2024-01-06T21:34:54;98079.34;;;4.42;76.65
48874;BME280;66155;46.204;5.220;2024-01-06T21:39:54;98076.78;;;4.35;76.74
48874;BME280;66155;46.204;5.220;2024-01-06T21:44:55;98080.94;;;4.23;77.44
48874;BME280;66155;46.204;5.220;2024-01-06T21:49:56;98065.53;;;4.09;76.84
48874;BME280;66155;46.204;5.220;2024-01-06T21:54:57;98087.19;;;4.04;77.36
48874;BME280;66155;46.204;5.220;2024-01-06T21:59:57;98077.50;;;3.99;77.38
48874;BME280;66155;46.204;5.220;2024-01-06T22:04:58;98080.50;;;4.05;76.93
48874;BME280;66155;46.204;5.220;2024-01-06T22:09:58;98090.28;;;4.06;76.91
48874;BME280;66155;46.204;5.220;2024-01-06T22:14:59;98089.38;;;4.12;76.41
48874;BME280;66155;46.204;5.220;2024-01-06T22:19:59;98084.22;;;4.14;76.23
48874;BME280;66155;46.204;5.220;2024-01-06T22:25:00;98086.81;;;4.21;76.32
48874;BME280;66155;46.204;5.220;2024-01-06T22:30:00;98076.38;;;4.16;76.79
48874;BME280;66155;46.204;5.220;2024-01-06T22:35:01;98088.53;;;4.15;77.02
48874;BME280;66155;46.204;5.220;2024-01-06T22:40:01;98073.28;;;4.14;77.19
48874;BME280;66155;46.204;5.220;2024-01-06T22:45:05;98087.47;;;4.09;77.19
48874;BME280;66155;46.204;5.220;2024-01-06T22:50:06;98084.38;;;4.07;76.97
48874;BME280;66155;46.204;5.220;2024-01-06T22:55:07;98072.28;;;4.05;77.94
48874;BME280;66155;46.204;5.220;2024-01-06T23:00:09;98071.94;;;4.03;77.67
48874;BME280;66155;46.204;5.220;2024-01-06T23:05:15;98072.03;;;3.99;78.22
48874;BME280;66155;46.204;5.220;2024-01-06T23:10:16;98075.88;;;4.02;78.15
48874;BME280;66155;46.204;5.220;2024-01-06T23:15:16;98076.31;;;4.00;78.81
48874;BME280;66155;46.204;5.220;2024-01-06T23:20:17;98063.72;;;4.03;78.21
48874;BME280;66155;46.204;5.220;2024-01-06T23:25:17;98052.84;;;3.99;78.74
48874;BME280;66155;46.204;5.220;2024-01-06T23:30:18;98062.53;;;4.04;78.47
48874;BME280;66155;46.204;5.220;2024-01-06T23:35:18;98069.28;;;3.99;80.92
48874;BME280;66155;46.204;5.220;2024-01-06T23:40:18;98067.66;;;4.02;79.12
48874;BME280;66155;46.204;5.220;2024-01-06T23:45:19;98053.25;;;3.98;79.35
48874;BME280;66155;46.204;5.220;2024-01-06T23:50:20;98075.38;;;4.07;78.99
48874;BME280;66155;46.204;5.220;2024-01-06T23:55:20;98060.13;;;4.06;78.82
